This is the latest recevied weather packets stored in our database for station/object LRTM. If no packets are shown the sender has not sent any weather packets the latest 10 day(s).
| Time | Temp. | Humidity | Pressure | Rain* | Wind** | Luminosity | Snow |
|---|---|---|---|---|---|---|---|
| 1777187904 | 16.11° C | 59% | 1010 hPa | - | - | - | - |
| 1777187007 | 16.11° C | 59% | 1010 hPa | - | - | - | - |
| 1777186103 | 12.78° C | 63% | 1010 hPa | - | - | - | - |
| 1777185206 | 12.78° C | 63% | 1010 hPa | - | - | - | - |
| 1777184307 | 11.11° C | 77% | 1010 hPa | - | - | - | - |
| 1777183407 | 11.11° C | 77% | 1010 hPa | - | - | - | - |
| 1777182506 | 8.89° C | 82% | 1011 hPa | - | - | - | - |
| 1777181609 | 8.89° C | 82% | 1011 hPa | - | - | - | - |
| 1777180706 | 7.22° C | 87% | 1011 hPa | - | - | - | - |
| 1777179807 | 7.22° C | 87% | 1011 hPa | - | - | - | - |
| 1777178927 | 5° C | 93% | 1011 hPa | - | - | - | - |
| 1777178007 | 5° C | 93% | 1011 hPa | - | - | - | - |
| 1777177106 | 2.78° C | 100% | 1011 hPa | - | - | - | - |
| 1777176206 | 2.78° C | 100% | 1011 hPa | - | - | - | - |
| 1777175306 | 2.78° C | 93% | 1011 hPa | - | - | - | - |
| 1777174406 | 2.78° C | 93% | 1011 hPa | - | - | - | - |
| 1777173506 | 3.89° C | 93% | 1011 hPa | - | - | - | - |
| 1777172606 | 3.89° C | 93% | 1011 hPa | - | - | - | - |
| 1777171707 | 3.89° C | 93% | 1011 hPa | - | - | - | - |
| 1777170806 | 3.89° C | 93% | 1011 hPa | - | - | - | - |
| 1777169906 | 3.89° C | 93% | 1011 hPa | - | - | - | - |
| 1777169006 | 3.89° C | 93% | 1011 hPa | - | - | - | - |
| 1777168106 | 3.89° C | 87% | 1011 hPa | - | - | - | - |
| 1777167207 | 3.89° C | 87% | 1011 hPa | - | - | - | - |
| 1777166306 | 3.89° C | 87% | 1011 hPa | - | - | - | - |
* Rain since midnight (hover to see other rain measurements)
** Current wind speed in m/s (hover to see current wind gust speed)